createdAt,value
2023-04-08T00:00:09.273Z,19.77
2023-04-08T00:03:00.837Z,17.20
2023-04-08T00:06:01.715Z,18.58
2023-04-08T00:08:42.184Z,18.45
2023-04-08T00:11:09.109Z,27.20
2023-04-08T00:13:36.389Z,18.40
2023-04-08T00:16:03.456Z,20.48
2023-04-08T00:18:30.527Z,21.25
2023-04-08T00:21:17.680Z,22.10
2023-04-08T00:23:58.203Z,19.55
2023-04-08T00:26:26.558Z,24.95
2023-04-08T00:28:53.588Z,19.17
2023-04-08T00:31:20.876Z,21.90
2023-04-08T00:33:48.002Z,20.52
2023-04-08T00:36:14.919Z,23.35
2023-04-08T00:38:41.979Z,33.65
2023-04-08T00:41:08.861Z,25.08
2023-04-08T00:43:36.022Z,27.80
2023-04-08T00:46:22.810Z,23.42
2023-04-08T00:49:03.281Z,22.85
2023-04-08T00:51:31.417Z,24.70
2023-04-08T00:53:58.552Z,24.92
2023-04-08T00:56:26.233Z,22.27
2023-04-08T00:58:55.303Z,26.10
2023-04-08T01:02:13.004Z,22.27
2023-04-08T01:05:13.280Z,19.60
2023-04-08T01:07:50.533Z,26.50
2023-04-08T01:10:23.861Z,22.10
2023-04-08T01:12:56.351Z,24.00
2023-04-08T01:15:26.340Z,23.50
2023-04-08T01:17:56.090Z,26.02
2023-04-08T01:20:43.713Z,24.52
2023-04-08T01:23:54.736Z,21.10
2023-04-08T01:26:36.246Z,27.02
2023-04-08T01:29:04.932Z,22.85
2023-04-08T01:31:32.600Z,20.02
2023-04-08T01:34:01.654Z,22.25
2023-04-08T01:36:29.492Z,22.63
2023-04-08T01:38:57.011Z,20.90
2023-04-08T01:41:24.242Z,21.95
2023-04-08T01:43:53.687Z,22.92
2023-04-08T01:46:42.773Z,19.92
2023-04-08T01:49:25.109Z,21.65
2023-04-08T01:51:55.508Z,22.08
2023-04-08T01:54:22.550Z,24.67
2023-04-08T01:56:51.608Z,26.88
2023-04-08T01:59:21.762Z,31.25
2023-04-08T02:01:56.836Z,29.40
2023-04-08T02:04:50.773Z,27.90
2023-04-08T02:07:24.560Z,30.83
2023-04-08T02:09:51.651Z,49.95
2023-04-08T02:12:19.080Z,35.53
2023-04-08T02:14:47.261Z,37.80
2023-04-08T02:17:25.055Z,38.75
2023-04-08T02:20:26.764Z,39.53
2023-04-08T02:23:33.755Z,39.75
2023-04-08T02:28:56.208Z,38.17
2023-04-08T02:31:24.656Z,42.33
2023-04-08T02:33:52.983Z,43.53
2023-04-08T02:36:22.228Z,42.88
2023-04-08T02:38:50.481Z,44.58
2023-04-08T02:41:17.678Z,44.15
2023-04-08T02:43:44.646Z,38.72
2023-04-08T02:46:31.761Z,47.50
2023-04-08T02:49:12.370Z,48.45
2023-04-08T02:51:39.377Z,43.40
2023-04-08T02:54:06.359Z,46.80
2023-04-08T02:56:33.336Z,41.47
2023-04-08T02:59:00.497Z,41.55
2023-04-08T03:01:27.570Z,39.78
2023-04-08T03:03:54.612Z,42.20
2023-04-08T03:06:21.651Z,49.10
2023-04-08T03:08:48.915Z,40.05
2023-04-08T03:11:16.117Z,40.72
2023-04-08T03:13:43.018Z,42.85
2023-04-08T03:16:09.957Z,40.83
2023-04-08T03:18:36.913Z,38.42
2023-04-08T03:21:23.817Z,43.35
2023-04-08T03:24:04.420Z,36.85
2023-04-08T03:26:31.414Z,39.15
2023-04-08T03:28:58.412Z,40.83
2023-04-08T03:31:26.142Z,40.40
2023-04-08T03:33:53.060Z,40.58
2023-04-08T03:36:19.992Z,46.95
2023-04-08T03:38:46.954Z,35.42
2023-04-08T03:41:33.803Z,39.05
2023-04-08T03:44:34.818Z,36.97
2023-04-08T03:47:35.875Z,41.15
2023-04-08T03:50:03.573Z,45.58
2023-04-08T03:52:30.610Z,46.47
2023-04-08T03:54:58.167Z,44.40
2023-04-08T03:57:25.366Z,45.78
2023-04-08T04:00:12.812Z,43.10
2023-04-08T04:03:13.987Z,42.58
2023-04-08T04:06:08.050Z,43.90
2023-04-08T04:08:48.319Z,36.65
2023-04-08T04:11:15.469Z,45.10
2023-04-08T04:13:42.433Z,43.80
2023-04-08T04:16:09.487Z,44.05
2023-04-08T04:18:36.546Z,46.15
2023-04-08T04:21:23.799Z,39.65
2023-04-08T04:24:04.615Z,49.97
2023-04-08T04:26:31.540Z,49.80
2023-04-08T04:28:58.510Z,48.17
2023-04-08T04:31:28.900Z,45.10
2023-04-08T04:33:55.894Z,42.47
2023-04-08T04:36:22.972Z,43.15
2023-04-08T04:38:51.434Z,43.97
2023-04-08T04:41:38.846Z,42.65
2023-04-08T04:44:39.823Z,41.22
2023-04-08T04:47:20.465Z,43.42
2023-04-08T04:49:47.612Z,47.97
2023-04-08T04:52:14.667Z,43.80
2023-04-08T04:54:41.633Z,45.55
2023-04-08T04:57:08.624Z,44.13
2023-04-08T04:59:35.871Z,44.83
2023-04-08T05:02:03.115Z,44.65
2023-04-08T05:04:30.580Z,44.42
2023-04-08T05:06:59.605Z,40.17
2023-04-08T05:09:26.636Z,40.85
2023-04-08T05:11:53.569Z,39.30
2023-04-08T05:14:20.468Z,44.47
2023-04-08T05:16:47.968Z,39.40
2023-04-08T05:19:14.979Z,38.42
2023-04-08T05:22:01.852Z,44.00
2023-04-08T05:24:56.066Z,45.90
2023-04-08T05:27:49.853Z,40.90
2023-04-08T05:30:31.116Z,40.80
2023-04-08T05:33:00.432Z,37.80
2023-04-08T05:35:28.894Z,40.42
2023-04-08T05:37:56.183Z,38.92
2023-04-08T05:40:42.871Z,32.28
2023-04-08T05:43:23.421Z,34.00
2023-04-08T05:45:50.382Z,43.95
2023-04-08T05:48:17.292Z,32.10
2023-04-08T05:50:44.311Z,28.10
2023-04-08T05:53:11.418Z,28.55
2023-04-08T05:55:38.413Z,29.55
2023-04-08T05:58:05.503Z,32.40
2023-04-08T06:00:32.404Z,24.40
2023-04-08T06:02:59.938Z,28.30
2023-04-08T06:05:27.100Z,28.35
2023-04-08T06:07:53.960Z,29.92
2023-04-08T06:10:20.859Z,27.23
2023-04-08T06:12:47.757Z,27.92
2023-04-08T06:15:14.636Z,27.73
2023-04-08T06:17:42.960Z,31.98
2023-04-08T06:20:29.886Z,33.65
2023-04-08T06:23:13.484Z,27.55
2023-04-08T06:25:40.365Z,41.15
2023-04-08T06:28:07.231Z,47.60
2023-04-08T06:30:34.315Z,28.60
2023-04-08T06:33:01.320Z,31.90
2023-04-08T06:35:48.936Z,30.90
2023-04-08T06:38:50.146Z,34.47
2023-04-08T06:41:50.882Z,26.65
2023-04-08T06:44:54.534Z,28.10
2023-04-08T06:47:21.535Z,26.63
2023-04-08T06:49:48.517Z,31.02
2023-04-08T06:52:15.890Z,25.83
2023-04-08T06:54:43.426Z,25.85
2023-04-08T06:57:10.364Z,29.90
2023-04-08T06:59:37.279Z,31.00
2023-04-08T07:02:04.293Z,31.35
2023-04-08T07:04:31.708Z,30.75
2023-04-08T07:06:58.618Z,29.90
2023-04-08T07:09:25.520Z,29.30
2023-04-08T07:11:52.512Z,26.77
2023-04-08T07:14:19.841Z,30.42
2023-04-08T07:16:46.986Z,30.50
2023-04-08T07:19:13.935Z,26.27
2023-04-08T07:22:00.922Z,29.30
2023-04-08T07:24:43.487Z,29.20
2023-04-08T07:27:10.635Z,32.45
2023-04-08T07:29:37.470Z,33.75
2023-04-08T07:32:04.566Z,34.75
2023-04-08T07:34:51.940Z,31.83
2023-04-08T07:37:42.109Z,37.28
2023-04-08T07:40:28.934Z,36.20
2023-04-08T07:43:29.932Z,37.85
2023-04-08T07:46:10.626Z,33.10
2023-04-08T07:48:37.670Z,37.08
2023-04-08T07:51:09.599Z,34.45
2023-04-08T07:53:38.868Z,38.90
2023-04-08T07:56:16.256Z,33.03
2023-04-08T07:58:43.626Z,33.83
2023-04-08T08:01:22.673Z,31.52
2023-04-08T08:03:52.400Z,48.20
2023-04-08T08:06:20.007Z,38.08
2023-04-08T08:09:06.942Z,42.10
2023-04-08T08:11:47.660Z,34.03
2023-04-08T08:14:15.792Z,35.00
2023-04-08T08:16:42.733Z,43.00
2023-04-08T08:19:09.734Z,40.20
2023-04-08T08:21:56.985Z,33.65
2023-04-08T08:24:38.110Z,31.83
2023-04-08T08:27:06.501Z,29.65
2023-04-08T08:29:33.705Z,26.80
2023-04-08T08:32:00.692Z,30.75
2023-04-08T08:34:27.975Z,25.52
2023-04-08T08:36:54.902Z,26.08
2023-04-08T08:39:41.995Z,26.58
2023-04-08T08:42:42.952Z,24.83
2023-04-08T08:45:27.921Z,26.65
2023-04-08T08:47:54.838Z,27.10
2023-04-08T08:50:21.821Z,29.58
2023-04-08T08:52:52.568Z,30.63
2023-04-08T08:55:36.264Z,24.30
2023-04-08T08:58:08.141Z,31.73
2023-04-08T09:00:39.873Z,33.40
2023-04-08T09:03:27.937Z,21.42
2023-04-08T09:06:01.130Z,23.73
2023-04-08T09:08:36.070Z,25.63
2023-04-08T09:11:14.890Z,28.45
2023-04-08T09:13:42.764Z,20.65
2023-04-08T09:16:16.722Z,22.80
2023-04-08T09:21:37.064Z,24.48
2023-04-08T09:24:37.035Z,27.77
2023-04-08T09:27:33.976Z,26.00
2023-04-08T09:30:16.749Z,23.17
2023-04-08T09:32:54.761Z,22.52
2023-04-08T09:35:22.536Z,23.27
2023-04-08T09:37:50.188Z,29.00
2023-04-08T09:40:40.000Z,24.13
2023-04-08T09:43:24.175Z,23.58
2023-04-08T09:45:52.267Z,25.85
2023-04-08T09:48:27.868Z,21.25
2023-04-08T09:50:57.962Z,23.92
2023-04-08T09:53:49.167Z,34.72
2023-04-08T09:56:17.462Z,22.45
2023-04-08T09:58:59.332Z,23.67
2023-04-08T10:01:37.600Z,22.13
2023-04-08T10:04:09.690Z,24.42
2023-04-08T10:06:58.006Z,24.42
2023-04-08T10:09:44.015Z,26.63
2023-04-08T10:12:10.983Z,25.85
2023-04-08T10:14:39.150Z,22.90
2023-04-08T10:17:30.304Z,22.63
2023-04-08T10:20:17.087Z,28.33
2023-04-08T10:23:13.530Z,26.73
2023-04-08T10:25:45.295Z,36.85
2023-04-08T10:28:12.381Z,24.73
2023-04-08T10:30:52.647Z,24.80
2023-04-08T10:33:33.018Z,26.80
2023-04-08T10:36:00.169Z,26.58
2023-04-08T10:38:27.447Z,29.42
2023-04-08T10:41:15.026Z,30.90
2023-04-08T10:44:19.047Z,26.65
2023-04-08T10:47:00.294Z,38.27
2023-04-08T10:49:34.959Z,24.65
2023-04-08T10:52:07.479Z,27.58
2023-04-08T10:54:34.673Z,26.55
2023-04-08T10:57:01.712Z,26.73
2023-04-08T10:59:32.179Z,26.25
2023-04-08T11:02:00.701Z,35.13
2023-04-08T11:04:27.785Z,28.88
2023-04-08T11:06:54.870Z,27.60
2023-04-08T11:09:21.882Z,26.73
2023-04-08T11:11:48.914Z,33.88
2023-04-08T11:14:19.775Z,27.88
2023-04-08T11:17:08.047Z,31.85
2023-04-08T11:19:49.052Z,40.58
2023-04-08T11:22:38.074Z,26.15
2023-04-08T11:25:18.809Z,25.08
2023-04-08T11:27:46.510Z,28.42
2023-04-08T11:30:13.681Z,25.73
2023-04-08T11:32:41.186Z,25.35
2023-04-08T11:35:08.444Z,24.48
2023-04-08T11:37:40.030Z,26.38
2023-04-08T11:40:27.047Z,23.48
2023-04-08T11:43:12.254Z,27.33
2023-04-08T11:45:40.445Z,30.52
2023-04-08T11:48:29.089Z,24.63
2023-04-08T11:51:30.072Z,32.78
2023-04-08T11:54:32.731Z,138.40
2023-04-08T11:57:00.021Z,24.33
2023-04-08T11:59:29.025Z,35.25
2023-04-08T12:01:56.845Z,32.97
2023-04-08T12:04:23.849Z,25.08
2023-04-08T12:06:50.897Z,28.50
2023-04-08T12:09:17.814Z,23.25
2023-04-08T12:11:44.935Z,24.52
2023-04-08T12:14:11.861Z,26.83
2023-04-08T12:16:38.920Z,24.90
2023-04-08T12:19:05.916Z,23.20
2023-04-08T12:21:53.127Z,25.83
2023-04-08T12:24:34.660Z,28.52
2023-04-08T12:27:03.329Z,27.60
2023-04-08T12:29:30.350Z,24.25
2023-04-08T12:31:57.320Z,26.98
2023-04-08T12:34:24.857Z,24.90
2023-04-08T12:36:51.759Z,33.33
2023-04-08T12:39:39.108Z,24.08
2023-04-08T12:42:19.704Z,25.23
2023-04-08T12:44:46.747Z,38.88
2023-04-08T12:47:13.773Z,21.30
2023-04-08T12:52:10.639Z,21.23
2023-04-08T12:54:37.624Z,22.17
2023-04-08T12:57:04.737Z,28.33
2023-04-08T12:59:33.565Z,19.73
2023-04-08T13:02:00.733Z,17.30
2023-04-08T13:04:27.645Z,25.90
2023-04-08T13:06:55.724Z,22.00
2023-04-08T13:09:23.057Z,24.92
2023-04-08T13:11:50.138Z,25.77
2023-04-08T13:14:17.502Z,34.70
2023-04-08T13:17:04.180Z,26.40
2023-04-08T13:20:05.160Z,18.23
2023-04-08T13:23:09.143Z,21.73
2023-04-08T13:25:49.763Z,26.23
2023-04-08T13:28:16.909Z,21.17
2023-04-08T13:30:43.904Z,21.38
2023-04-08T13:33:10.804Z,26.15
2023-04-08T13:35:37.841Z,26.48
2023-04-08T13:38:04.763Z,26.63
2023-04-08T13:40:52.147Z,20.08
2023-04-08T13:43:32.822Z,26.38
2023-04-08T13:45:59.688Z,24.15
2023-04-08T13:48:26.768Z,17.50
2023-04-08T13:50:53.665Z,20.50
2023-04-08T13:53:20.798Z,19.25
2023-04-08T13:55:47.726Z,19.92
2023-04-08T13:58:23.463Z,19.40
2023-04-08T14:00:52.007Z,18.23
2023-04-08T14:03:19.430Z,20.05
2023-04-08T14:05:46.626Z,20.15
2023-04-08T14:08:13.974Z,17.23
2023-04-08T14:10:42.221Z,18.15
2023-04-08T14:13:09.452Z,17.42
2023-04-08T14:15:36.594Z,17.88
2023-04-08T14:18:03.602Z,16.65
2023-04-08T14:20:51.290Z,17.02
2023-04-08T14:23:52.189Z,16.23
2023-04-08T14:26:35.920Z,23.33
2023-04-08T14:29:04.828Z,20.40
2023-04-08T14:31:52.199Z,16.55
2023-04-08T14:34:32.940Z,17.80
2023-04-08T14:36:59.928Z,17.85
2023-04-08T14:39:47.198Z,16.70
2023-04-08T14:42:27.839Z,20.55
2023-04-08T14:44:54.812Z,28.63
2023-04-08T14:47:42.198Z,20.83
2023-04-08T14:50:22.835Z,22.75
2023-04-08T14:53:10.195Z,27.27
2023-04-08T14:55:51.212Z,19.08
2023-04-08T14:58:19.990Z,20.92
2023-04-08T15:00:47.861Z,17.83
2023-04-08T15:03:15.684Z,18.80
2023-04-08T15:05:55.975Z,22.55
2023-04-08T15:08:22.939Z,23.10
2023-04-08T15:10:49.973Z,17.20
2023-04-08T15:13:17.315Z,24.20
2023-04-08T15:15:44.374Z,17.98
2023-04-08T15:18:11.566Z,17.65
2023-04-08T15:20:59.204Z,18.63
2023-04-08T15:23:42.074Z,23.77
2023-04-08T15:26:10.055Z,20.02
2023-04-08T15:28:38.223Z,18.38
2023-04-08T15:31:05.943Z,22.38
2023-04-08T15:33:33.192Z,18.35
2023-04-08T15:36:04.117Z,17.55
2023-04-08T15:38:51.505Z,24.23
2023-04-08T15:41:52.211Z,18.20
2023-04-08T15:44:33.083Z,17.38
2023-04-08T15:47:00.308Z,25.15
2023-04-08T15:49:27.270Z,19.10
2023-04-08T15:51:54.324Z,15.70
2023-04-08T15:54:21.399Z,15.23
2023-04-08T15:56:48.322Z,17.02
2023-04-08T15:59:15.608Z,14.63
2023-04-08T16:01:42.696Z,17.92
2023-04-08T16:04:09.986Z,17.50
2023-04-08T16:06:37.028Z,14.63
2023-04-08T16:09:04.290Z,26.33
2023-04-08T16:11:31.463Z,24.85
2023-04-08T16:13:58.309Z,23.58
2023-04-08T16:16:25.787Z,20.73
2023-04-08T16:19:14.412Z,20.50
2023-04-08T16:22:15.251Z,21.33
2023-04-08T16:25:04.787Z,25.42
2023-04-08T16:27:31.668Z,26.90
2023-04-08T16:29:58.640Z,26.98
2023-04-08T16:32:46.248Z,24.52
2023-04-08T16:35:27.232Z,29.25
2023-04-08T16:38:14.268Z,29.10
2023-04-08T16:41:06.217Z,33.97
2023-04-08T16:43:33.098Z,29.13
2023-04-08T16:45:59.985Z,20.95
2023-04-08T16:48:27.091Z,31.33
2023-04-08T16:51:18.262Z,24.83
2023-04-08T16:57:20.261Z,24.80
2023-04-08T17:00:22.419Z,19.23
2023-04-08T17:02:57.252Z,19.50
2023-04-08T17:05:25.237Z,23.52
2023-04-08T17:07:52.938Z,19.27
2023-04-08T17:10:22.880Z,23.27
2023-04-08T17:12:49.740Z,28.77
2023-04-08T17:15:16.638Z,18.50
2023-04-08T17:17:43.611Z,25.45
2023-04-08T17:20:31.286Z,22.13
2023-04-08T17:23:14.708Z,23.20
2023-04-08T17:25:41.766Z,26.45
2023-04-08T17:28:29.303Z,32.22
2023-04-08T17:31:10.790Z,30.25
2023-04-08T17:33:37.752Z,31.80
2023-04-08T17:36:05.039Z,36.80
2023-04-08T17:38:54.278Z,24.90
2023-04-08T17:41:40.514Z,22.92
2023-04-08T17:44:08.374Z,24.90
2023-04-08T17:46:35.591Z,29.60
2023-04-08T17:49:02.539Z,24.65
2023-04-08T17:51:31.034Z,33.25
2023-04-08T17:53:57.935Z,62.53
2023-04-08T17:56:24.860Z,40.67
2023-04-08T17:59:12.353Z,59.95
2023-04-08T18:02:13.376Z,32.17
2023-04-08T18:05:08.174Z,38.42
2023-04-08T18:07:36.194Z,28.08
2023-04-08T18:10:03.648Z,30.83
2023-04-08T18:12:31.238Z,22.00
2023-04-08T18:15:18.307Z,22.63
2023-04-08T18:17:58.998Z,20.55
2023-04-08T18:20:50.305Z,21.25
2023-04-08T18:26:31.879Z,17.55
2023-04-08T18:29:19.302Z,21.42
2023-04-08T18:32:00.122Z,18.92
2023-04-08T18:34:27.240Z,18.85
2023-04-08T18:36:54.343Z,18.23
2023-04-08T18:39:41.342Z,27.30
2023-04-08T18:42:21.943Z,23.88
2023-04-08T18:44:48.837Z,22.52
2023-04-08T18:47:17.195Z,20.77
2023-04-08T18:49:44.284Z,19.35
2023-04-08T18:52:11.393Z,25.73
2023-04-08T18:54:38.547Z,27.88
2023-04-08T18:57:25.321Z,22.15
2023-04-08T19:00:06.700Z,17.10
2023-04-08T19:02:33.897Z,19.65
2023-04-08T19:05:21.364Z,25.52
2023-04-08T19:08:22.306Z,20.10
2023-04-08T19:11:23.363Z,17.67
2023-04-08T19:14:14.359Z,22.48
2023-04-08T19:17:16.393Z,26.00
2023-04-08T19:20:17.456Z,24.42
2023-04-08T19:23:16.298Z,16.27
2023-04-08T19:25:44.088Z,15.70
2023-04-08T19:28:13.357Z,13.93
2023-04-08T19:30:41.157Z,13.93
2023-04-08T19:33:08.945Z,12.23
2023-04-08T19:35:36.036Z,16.23
2023-04-08T19:38:23.331Z,9.00
2023-04-08T19:41:04.081Z,13.30
2023-04-08T19:43:31.091Z,9.57
2023-04-08T19:45:58.295Z,9.77
2023-04-08T19:48:25.804Z,8.48
2023-04-08T19:50:53.065Z,10.88
2023-04-08T19:53:20.124Z,9.13
2023-04-08T19:55:47.131Z,9.48
2023-04-08T19:58:14.048Z,7.97
2023-04-08T20:00:41.377Z,8.80
2023-04-08T20:03:08.476Z,9.85
2023-04-08T20:05:55.384Z,11.02
2023-04-08T20:08:36.109Z,19.15
2023-04-08T20:11:04.704Z,15.68
2023-04-08T20:13:31.823Z,11.95
2023-04-08T20:16:19.415Z,11.52
2023-04-08T20:19:20.418Z,13.25
2023-04-08T20:22:21.415Z,16.42
2023-04-08T20:25:02.009Z,14.10
2023-04-08T20:27:29.085Z,11.30
2023-04-08T20:29:56.293Z,10.65
2023-04-08T20:32:23.764Z,15.15
2023-04-08T20:34:51.407Z,10.07
2023-04-08T20:37:38.389Z,13.32
2023-04-08T20:40:32.532Z,19.95
2023-04-08T20:43:13.241Z,9.57
2023-04-08T20:45:40.353Z,9.45
2023-04-08T20:48:07.562Z,14.27
2023-04-08T20:50:35.060Z,12.93
2023-04-08T20:53:02.157Z,8.52
2023-04-08T20:55:29.067Z,9.40
2023-04-08T20:57:56.084Z,9.70
2023-04-08T21:00:23.335Z,10.13
2023-04-08T21:02:51.055Z,7.90
2023-04-08T21:05:38.428Z,9.70
2023-04-08T21:08:32.529Z,11.23
2023-04-08T21:10:59.507Z,8.40
2023-04-08T21:13:26.424Z,10.43
2023-04-08T21:15:53.256Z,11.60
2023-04-08T21:18:20.142Z,15.77
2023-04-08T21:21:07.422Z,11.15
2023-04-08T21:24:08.426Z,11.13
2023-04-08T21:26:48.985Z,8.93
2023-04-08T21:29:15.839Z,9.68
2023-04-08T21:31:42.830Z,10.35
2023-04-08T21:34:09.882Z,13.85
2023-04-08T21:36:57.404Z,11.45
2023-04-08T21:39:59.401Z,18.60
2023-04-08T21:42:40.016Z,19.98
2023-04-08T21:45:07.415Z,9.85
2023-04-08T21:47:34.480Z,13.55
2023-04-08T21:50:01.436Z,12.85
2023-04-08T21:52:29.652Z,10.93
2023-04-08T21:54:56.541Z,12.43
2023-04-08T21:57:23.500Z,12.48
2023-04-08T21:59:50.674Z,11.45
2023-04-08T22:02:17.748Z,12.90
2023-04-08T22:04:44.842Z,14.02
2023-04-08T22:07:12.180Z,11.80
2023-04-08T22:09:39.346Z,11.35
2023-04-08T22:12:06.373Z,10.82
2023-04-08T22:14:33.349Z,13.55
2023-04-08T22:17:00.572Z,11.18
2023-04-08T22:19:27.553Z,11.10
2023-04-08T22:22:14.461Z,11.38
2023-04-08T22:24:54.942Z,10.90
2023-04-08T22:27:21.925Z,11.13
2023-04-08T22:29:48.977Z,12.68
2023-04-08T22:32:18.221Z,12.25
2023-04-08T22:34:45.306Z,13.07
2023-04-08T22:37:32.419Z,14.57
2023-04-08T22:40:33.456Z,12.13
2023-04-08T22:43:27.556Z,12.52
2023-04-08T22:45:54.480Z,12.88
2023-04-08T22:48:22.071Z,12.57
2023-04-08T22:50:49.019Z,13.55
2023-04-08T22:53:16.334Z,13.05
2023-04-08T22:55:43.203Z,13.80
2023-04-08T22:58:10.085Z,11.98
2023-04-08T23:00:37.098Z,13.60
2023-04-08T23:03:04.949Z,13.90
2023-04-08T23:05:32.374Z,12.73
2023-04-08T23:07:59.859Z,13.35
2023-04-08T23:10:26.773Z,14.25
2023-04-08T23:12:53.726Z,13.57
2023-04-08T23:15:20.679Z,12.95
2023-04-08T23:17:47.585Z,10.90
2023-04-08T23:20:34.478Z,14.23
2023-04-08T23:23:16.054Z,11.18
2023-04-08T23:25:42.906Z,20.48
2023-04-08T23:28:09.880Z,11.95
2023-04-08T23:30:37.513Z,12.13
2023-04-08T23:33:04.600Z,13.32
2023-04-08T23:35:31.650Z,11.95
2023-04-08T23:38:18.518Z,11.82
2023-04-08T23:40:59.061Z,11.40
2023-04-08T23:43:26.029Z,16.90
2023-04-08T23:45:52.873Z,13.13
2023-04-08T23:48:19.782Z,13.63
2023-04-08T23:50:54.989Z,10.38
2023-04-08T23:53:22.367Z,13.45
2023-04-08T23:55:49.395Z,13.05
2023-04-08T23:58:16.345Z,14.07
